Terminal Aerodrome Forecast
Issued by NWS Paducah, KY

Home | Current Version | Previous Version | Text Only | Print | Product List | Glossary On
Versions: 1 2 3 4 5 6 7 8 9 10 11 12 13
000
FTUS43 KPAH 091100
TAFEVV
TAF
KEVV 091136Z 0912/1012 28003KT P6SM SKC
     FM091500 29007KT P6SM SCT045
     FM100100 36002KT P6SM FEW060=

USA.gov is the U.S. government's official web portal to all federal, state and local government web resources and services.